Home > Products > Valid Products > TAF

000
FTUS44 KMEG 161100
TAFJBR
TAF
KJBR 161123Z 1612/1712 05004KT P6SM SCT250
     FM161500 16012KT P6SM BKN250
     FM162300 16005KT P6SM BKN250=



000
FTUS44 KMEG 161100
TAFMEM
TAF
KMEM 161123Z 1612/1712 12006KT P6SM FEW250
     FM161500 16010KT P6SM SCT250
     FM162300 16006KT P6SM BKN250=



000
FTUS44 KMEG 161100
TAFTUP
TAF
KTUP 161123Z 1612/1712 VRB03KT P6SM SKC
     FM161500 14008KT P6SM SCT250
     FM162300 14004KT P6SM BKN250=



000
FTUS44 KMEG 161100
TAFMKL
TAF
KMKL 161123Z 1612/1712 12005KT P6SM FEW250
     FM161500 14008KT P6SM BKN250
     FM162300 15004KT P6SM BKN250=



000
FTUS44 KMEG 160900 AAA
TAFMEM
TAF AMD
KMEM 160904Z 1609/1706 13006KT P6SM FEW250
     FM161500 15010KT P6SM SCT250
     FM162300 16006KT P6SM BKN250=



000
FTUS44 KMEG 160500
TAFMEM
TAF
KMEM 160522Z 1606/1706 13006KT P6SM FEW250
     FM161500 15010KT P6SM SCT250
     FM162300 16006KT P6SM BKN250=



000
FTUS44 KMEG 160500
TAFMKL
TAF
KMKL 160522Z 1606/1706 VRB02KT P6SM FEW250
     FM161500 14008KT P6SM BKN250
     FM162300 15004KT P6SM BKN250=



000
FTUS44 KMEG 160500
TAFJBR
TAF
KJBR 160522Z 1606/1706 05004KT P6SM SCT250
     FM161500 16012KT P6SM BKN250
     FM162300 16006KT P6SM BKN250=



000
FTUS44 KMEG 160500
TAFTUP
TAF
KTUP 160522Z 1606/1706 VRB03KT P6SM SKC
     FM161500 13008KT P6SM SCT250
     FM162300 14004KT P6SM SCT250=



000
FTUS44 KMEG 160200 AAA
TAFMEM
TAF AMD
KMEM 160259Z 1603/1624 14005KT P6SM SKC
     FM161500 15011KT P6SM SCT250
     FM162100 18008KT P6SM SCT250=



000
FTUS44 KMEG 152300
TAFMEM
TAF
KMEM 152331Z 1600/1624 03007KT P6SM SKC
     FM160100 10005KT P6SM SKC
     FM161500 15011KT P6SM SCT250
     FM162100 18008KT P6SM SCT250=



000
FTUS44 KMEG 152300
TAFTUP
TAF
KTUP 152331Z 1600/1624 02011KT P6SM SKC
     FM160300 VRB03KT P6SM SKC
     FM161200 17010KT P6SM SKC=



000
FTUS44 KMEG 152300
TAFMKL
TAF
KMKL 152331Z 1600/1624 01006KT P6SM SKC
     FM160100 VRB02KT P6SM SKC
     FM161500 15007KT P6SM SCT250=



000
FTUS44 KMEG 152300
TAFJBR
TAF
KJBR 152331Z 1600/1624 05004KT P6SM SKC
     FM160300 VRB03KT P6SM SKC
     FM161500 16013KT P6SM SCT250=



000
FTUS44 KMEG 152000 AAA
TAFMEM
TAF AMD
KMEM 152038Z 1521/1618 35010G18KT P6SM SKC
     FM160100 10003KT P6SM SKC
     FM161500 14012KT P6SM SKC=



000
FTUS44 KMEG 151700
TAFTUP
TAF
KTUP 151720Z 1518/1618 02013G23KT P6SM SKC
     FM152200 02010G16KT P6SM SKC
     FM160100 03003KT P6SM SKC
     FM161500 15010KT P6SM SKC=



000
FTUS44 KMEG 151700
TAFJBR
TAF
KJBR 151720Z 1518/1618 01010G18KT P6SM SKC
     FM152200 03008KT P6SM SKC
     FM160100 VRB03KT P6SM SKC
     FM161500 16013KT P6SM SKC=



000
FTUS44 KMEG 151700
TAFMEM
TAF
KMEM 151720Z 1518/1618 35013G22KT P6SM SKC
     FM152100 35010KT P6SM SKC
     FM160100 10003KT P6SM SKC
     FM161500 14012KT P6SM SKC=



000
FTUS44 KMEG 151700
TAFMKL
TAF
KMKL 151720Z 1518/1618 36013G22KT P6SM SKC
     FM152200 35011KT P6SM SKC
     FM160100 VRB02KT P6SM SKC
     FM161500 13010KT P6SM SKC=



000
FTUS44 KMEG 151500 AAA
TAFMEM
TAF AMD
KMEM 151500Z 1515/1612 01016G25KT P6SM SKC
     FM152100 01010KT P6SM FEW040
     FM160100 09004KT P6SM SKC=



000
FTUS44 KMEG 151200 AAA
TAFTUP
TAF AMD
KTUP 151214Z 1512/1612 36016G24KT P6SM BKN028 OVC040
     FM151400 01018G25KT P6SM SCT040
     FM152200 02010G16KT P6SM FEW040
     FM160100 03003KT P6SM SKC=



000
FTUS44 KMEG 151100
TAFMEM
TAF
KMEM 151120Z 1512/1612 34012KT P6SM SKC
     FM151400 34015G22KT P6SM FEW040
     FM152100 01010KT P6SM FEW040
     FM160100 09004KT P6SM SKC=



000
FTUS44 KMEG 151100
TAFTUP
TAF
KTUP 151120Z 1512/1612 36016G24KT P6SM SCT025 BKN040
     FM151400 01018G25KT P6SM SCT040
     FM152200 02010G16KT P6SM FEW040
     FM160100 03003KT P6SM SKC=



000
FTUS44 KMEG 151100
TAFJBR
TAF
KJBR 151120Z 1512/1612 34010KT P6SM SKC
     FM151500 35010G16KT P6SM FEW040
     FM152200 35006KT P6SM SKC
     FM160100 VRB03KT P6SM SKC=



000
FTUS44 KMEG 151100
TAFMKL
TAF
KMKL 151120Z 1512/1612 35015G22KT P6SM SCT035
     FM151500 35016G24KT P6SM SCT040
     FM152200 35012KT P6SM FEW040
     FM160100 VRB03KT P6SM SKC=



000
FTUS44 KMEG 150800 AAA
TAFMEM
TAF AMD
KMEM 150859Z 1509/1606 34017G24KT P6SM BKN030
     FM150930 34015G22KT P6SM SCT035
     FM152100 01010KT P6SM FEW040
     FM160100 06004KT P6SM SKC=



000
FTUS44 KMEG 150800 AAA
TAFTUP
TAF AMD
KTUP 150830Z 1509/1606 36014G20KT P6SM VCSH BKN020 OVC035
     FM151000 35016G24KT P6SM SCT025 BKN040
     FM151500 01014G22KT P6SM SCT040
     FM152200 36010G16KT P6SM FEW040
     FM160200 VRB03KT P6SM SKC=



000
FTUS44 KMEG 150500
TAFMKL
TAF
KMKL 150523Z 1506/1606 34014G20KT P6SM BKN020 OVC050
     FM151100 34014G20KT P6SM SCT025 BKN050
     FM151500 35016G24KT P6SM SCT040
     FM152200 35012KT P6SM FEW040
     FM160200 VRB03KT P6SM SKC=



000
FTUS44 KMEG 150500
TAFMEM
TAF
KMEM 150523Z 1506/1606 34015G22KT P6SM BKN025 OVC040
     FM150900 34015G22KT P6SM SCT025 BKN040
     FM151400 35015G22KT P6SM SCT040
     FM152100 01010KT P6SM FEW040
     FM160100 06004KT P6SM SKC=



000
FTUS44 KMEG 150500
TAFTUP
TAF
KTUP 150523Z 1506/1606 36014G20KT P6SM VCSH BKN020 OVC035
      TEMPO 1506/1510 SCT020
     FM151000 35016G24KT P6SM SCT025 BKN040
     FM151500 01014G22KT P6SM SCT040
     FM152200 36010G16KT P6SM FEW040
     FM160200 VRB03KT P6SM SKC=



000
FTUS44 KMEG 150500
TAFJBR
TAF
KJBR 150523Z 1506/1606 34012G20KT P6SM BKN040
     FM151000 34010KT P6SM SCT040
     FM151500 35010G16KT P6SM FEW040
     FM152100 35006KT P6SM SKC
     FM160100 VRB03KT P6SM SKC=



000
FTUS44 KMEG 150300 AAA
TAFMEM
TAF AMD
KMEM 150306Z 1503/1524 35015G22KT P6SM -RA BKN007 OVC015
     FM150330 35015G22KT P6SM BKN015 OVC025
     FM150400 34015G22KT P6SM BKN025 BKN040
     FM150800 34015G22KT P6SM BKN040
     FM151400 35015G24KT P6SM SCT040
     FM152200 01010G16KT P6SM SKC=



000
FTUS44 KMEG 142300 CCA
TAFMEM
TAF COR
KMEM 142330Z 1500/1524 34012G20KT P6SM VCSH BKN012 OVC020
      TEMPO 1501/1504 SCT012
     FM150400 34015G22KT P6SM BKN025 BKN040
     FM150800 34015G22KT P6SM BKN040
     FM151400 35015G24KT P6SM SCT040
     FM152200 01010G16KT P6SM SKC=



000
FTUS44 KMEG 142300
TAFMEM
TAF
KMEM 142321Z 1500/1524 34012G20KT P6SM BKN012 OVC020
      TEMPO 1501/1504 SCT012
     FM150400 34015G22KT P6SM BKN025 BKN040
     FM150800 34015G22KT P6SM BKN040
     FM151400 35015G24KT P6SM SCT040
     FM152200 01010G16KT P6SM SKC=



000
FTUS44 KMEG 142300
TAFMKL
TAF
KMKL 142321Z 1500/1524 34010G18KT P6SM VCSH SCT008 OVC015
      TEMPO 1500/1502 5SM -SHRA BKN008
     FM150400 34012G20KT P6SM BKN025 OVC040
     FM151000 34012G20KT P6SM BKN040
     FM151500 35018G27KT P6SM SCT040
     FM152200 35010G16KT P6SM SKC=



000
FTUS44 KMEG 142300
TAFTUP
TAF
KTUP 142321Z 1500/1524 33010G17KT 6SM -SHRA BR SCT008 OVC015
      TEMPO 1500/1503 4SM SHRA BKN008
     FM150300 35015G22KT P6SM VCSH SCT008 OVC025
     FM151000 35015G22KT P6SM SCT025 BKN040
     FM151500 01020G30KT P6SM SCT040
     FM152300 36012G18KT P6SM SKC=



000
FTUS44 KMEG 142300
TAFJBR
TAF
KJBR 142321Z 1500/1524 34010G18KT P6SM SCT025 OVC040
      TEMPO 1500/1503 BKN025
     FM150300 34012G20KT P6SM BKN040 BKN100
     FM150900 34010KT P6SM SCT040 BKN100
     FM151500 35012G20KT P6SM FEW040
     FM152100 35008KT P6SM SKC=



000
FTUS44 KMEG 142100 AAB
TAFMEM
TAF AMD
KMEM 142158Z 1422/1518 34012G20KT 6SM -SHRA BR SCT008 OVC015
      TEMPO 1422/1501 BKN008
     FM150200 34015G22KT P6SM OVC025
     FM150800 34015G22KT P6SM SKC
     FM151500 35015G25KT P6SM SCT040=



000
FTUS44 KMEG 142100 AAA
TAFMEM
TAF AMD
KMEM 142109Z 1421/1518 34012G20KT 6SM -SHRA BR VCTS OVC015CB
      TEMPO 1421/1501 3SM -SHRA OVC008
     FM150200 34015G22KT P6SM OVC025
     FM150800 34015G22KT P6SM SKC
     FM151500 35015G25KT P6SM SCT040=



000
FTUS44 KMEG 142000 AAB
TAFJBR
TAF AMD
KJBR 142037Z 1421/1518 34010G20KT P6SM -SHRA VCTS OVC030CB
      TEMPO 1421/1422 3SM -SHRA OVC015
     FM150000 34015G22KT P6SM OVC030
     FM150500 34012KT P6SM SCT080
     FM150900 34010KT P6SM SKC
     FM151500 35012KT P6SM SCT040=



000
FTUS44 KMEG 142000 AAA
TAFMKL
TAF AMD
KMKL 142036Z 1421/1518 34010G20KT 6SM -SHRA VCTS OVC015CB
      TEMPO 1423/1503 3SM -SHRA OVC008
     FM150400 34015G22KT P6SM OVC025
     FM150900 34012G20KT P6SM SKC
     FM151500 35018G27KT P6SM SCT040=



000
FTUS44 KMEG 141800 AAA
TAFJBR
TAF AMD
KJBR 141842Z 1419/1518 32010KT P6SM -SHRA VCTS OVC030CB
     FM141900 34010G20KT P6SM -SHRA VCTS OVC025CB
      TEMPO 1419/1422 3SM -SHRA OVC015
     FM150000 34015G22KT P6SM OVC025
     FM150500 34012KT P6SM SCT080
     FM150900 34010KT P6SM SKC
     FM151500 35012KT P6SM SCT040=



000
FTUS44 KMEG 141700
TAFMKL
TAF
KMKL 141730Z 1418/1518 24008KT P6SM BKN025 BKN050
     FM142000 34010KT P6SM VCSH OVC025
     FM142100 34010G20KT 6SM -SHRA OVC015
      TEMPO 1423/1503 3SM -SHRA OVC008
     FM150400 34015G22KT P6SM OVC025
     FM150900 34012G20KT P6SM SKC
     FM151500 35018G27KT P6SM SCT040=



000
FTUS44 KMEG 141700
TAFJBR
TAF
KJBR 141730Z 1418/1518 32010KT P6SM -SHRA OVC030
     FM141900 34010G20KT P6SM -SHRA OVC025
      TEMPO 1419/1422 3SM -SHRA OVC015
     FM150000 34015G22KT P6SM OVC025
     FM150500 34012KT P6SM SCT080
     FM150900 34010KT P6SM SKC
     FM151500 35012KT P6SM SCT040=



000
FTUS44 KMEG 141700
TAFMEM
TAF
KMEM 141730Z 1418/1518 30010KT P6SM VCTS SCT008 OVC025CB
      TEMPO 1418/1421 5SM -SHRA BR OVC008
     FM142100 34010G20KT 6SM -SHRA BR VCTS OVC015CB
      TEMPO 1421/1501 3SM -SHRA OVC008
     FM150200 34015G22KT P6SM OVC025
     FM150800 34015G22KT P6SM SKC
     FM151500 35015G25KT P6SM SCT040=



000
FTUS44 KMEG 141700
TAFTUP
TAF
KTUP 141730Z 1418/1518 24010KT P6SM -SHRA VCTS OVC015CB
     FM150100 33010G20KT 6SM -SHRA BR VCTS OVC008CB
      TEMPO 1501/1505 4SM -SHRA OVC004
     FM150600 35015G22KT P6SM OVC015
     FM151100 36015G22KT P6SM SKC
     FM151500 01020G30KT P6SM SCT040=



000
FTUS44 KMEG 141600 AAB
TAFJBR
TAF AMD
KJBR 141646Z 1417/1512 32010KT P6SM OVC030
     FM141800 34010G20KT P6SM -SHRA OVC015
     FM150200 33015KT P6SM OVC040
     FM150900 35010KT P6SM SKC=



000
FTUS44 KMEG 141500 AAA
TAFMEM
TAF AMD
KMEM 141504Z 1415/1512 20005KT P6SM OVC025
     FM141600 30010KT P6SM OVC025
     FM142000 33010G20KT P6SM -SHRA OVC015
     FM150400 34015KT P6SM OVC030=



000
FTUS44 KMEG 141200 AAA
TAFJBR
TAF AMD
KJBR 141205Z 1412/1512 23005KT P6SM OVC025
     FM141400 34010KT P6SM OVC030
     FM141800 34010G20KT P6SM -SHRA OVC015
     FM150200 33015KT P6SM OVC040
     FM150900 35010KT P6SM SKC=



000
FTUS44 KMEG 141100
TAFMKL
TAF
KMKL 141121Z 1412/1512 17005KT P6SM OVC100
     FM141600 25010KT P6SM OVC030
     FM142100 33015G25KT P6SM -SHRA OVC015
     FM150600 34015KT P6SM OVC015=



000
FTUS44 KMEG 141100
TAFMEM
TAF
KMEM 141121Z 1412/1512 20005KT P6SM OVC150
     FM141500 30010KT P6SM OVC030
     FM142000 33010G20KT P6SM -SHRA OVC015
     FM150400 34015KT P6SM OVC030=



000
FTUS44 KMEG 141100
TAFTUP
TAF
KTUP 141121Z 1412/1512 20005KT P6SM -SHRA OVC090
     FM141500 23010KT P6SM -SHRA OVC015
     FM150100 33015KT P6SM -SHRA OVC008
     FM150900 36015KT P6SM OVC015=



000
FTUS44 KMEG 141100
TAFJBR
TAF
KJBR 141121Z 1412/1512 21005KT P6SM OVC150
     FM141400 34010KT P6SM OVC030
     FM141800 34010G20KT P6SM -SHRA OVC015
     FM150200 33015KT P6SM OVC040
     FM150900 35010KT P6SM SKC=



000
FTUS44 KMEG 140800 AAC
TAFMEM
TAF AMD
KMEM 140858Z 1409/1506 18005KT P6SM OVC100
     FM141000 17010KT 5SM BR VCSH BKN015 OVC040
     FM141500 23011KT P6SM VCTS BKN015 OVC035CB
      TEMPO 1416/1419 3SM TSRA OVC015CB
     FM141900 33015G25KT P6SM -SHRA OVC012
     FM150100 34015G25KT P6SM OVC015=



000
FTUS44 KMEG 140800 AAB
TAFMEM
TAF AMD
KMEM 140800Z 1408/1506 27005KT P6SM OVC090
     FM141000 17010KT 5SM BR VCSH BKN015 OVC040
     FM141500 23011KT P6SM VCTS BKN015 OVC035CB
      TEMPO 1416/1419 3SM TSRA OVC015CB
     FM141900 33015G25KT P6SM -SHRA OVC012
     FM150100 34015G25KT P6SM OVC015=



000
FTUS44 KMEG 140700 AAA
TAFJBR
TAF AMD
KJBR 140737Z 1408/1506 22012KT P6SM -SHRA OVC090
     FM140900 17008KT 5SM BR VCSH BKN015 OVC035
     FM141300 22011KT P6SM VCTS BKN015 OVC035CB
      TEMPO 1413/1417 4SM -TSRA BR OVC015CB
     FM141700 33015G25KT P6SM -SHRA OVC012
     FM150100 35015G25KT P6SM OVC012=



000
FTUS44 KMEG 140700 AAA
TAFMKL
TAF AMD
KMKL 140736Z 1408/1506 18010G20KT P6SM -SHRA OVC070
      TEMPO 1408/1409 3SM TSRA OVC035CB
     FM141100 20010KT 5SM BR VCSH BKN015 OVC040
     FM141600 23011KT P6SM VCTS BKN015 OVC035CB
      TEMPO 1417/1420 3SM TSRA OVC015CB
     FM142000 33015G25KT P6SM -SHRA OVC012
     FM150100 34015G25KT P6SM OVC008=



000
FTUS44 KMEG 140700 AAA
TAFMEM
TAF AMD
KMEM 140734Z 1408/1506 27015G25KT 3SM RA BR SCT010 OVC035
     FM141000 17010KT 5SM BR VCSH BKN015 OVC040
     FM141500 23011KT P6SM VCTS BKN015 OVC035CB
      TEMPO 1416/1419 3SM TSRA OVC015CB
     FM141900 33015G25KT P6SM -SHRA OVC012
     FM150100 34015G25KT P6SM OVC015=



000
FTUS44 KMEG 140500
TAFMEM
TAF
KMEM 140520Z 1406/1506 19020G30KT P6SM -SHRA VCTS SCT040CB BKN060
      WS020/20050KT
      TEMPO 1406/1408 1SM +TSRA BKN015CB OVC030
     FM141000 17010KT 5SM BR VCSH BKN015 OVC040
     FM141500 23011KT P6SM VCTS BKN015 OVC035CB
      TEMPO 1416/1419 3SM TSRA OVC015CB
     FM141900 33015G25KT P6SM -SHRA OVC012
     FM150100 34015G25KT P6SM OVC015=



000
FTUS44 KMEG 140500
TAFJBR
TAF
KJBR 140520Z 1406/1506 22012KT P6SM -SHRA VCTS BKN040CB OVC060
      WS020/22050KT
      TEMPO 1406/1408 1SM +TSRA OVC015CB
     FM140900 17008KT 5SM BR VCSH BKN015 OVC035
     FM141300 22011KT P6SM VCTS BKN015 OVC035CB
      TEMPO 1413/1417 4SM -TSRA BR OVC015CB
     FM141700 33015G25KT P6SM -SHRA OVC012
     FM150100 35015G25KT P6SM OVC012=



000
FTUS44 KMEG 140500
TAFTUP
TAF
KTUP 140520Z 1406/1506 19018G28KT P6SM -SHRA VCTS SCT050CB OVC100
      WS020/20050KT
      TEMPO 1410/1412 2SM TSRA BKN015CB
     FM141200 18010KT 5SM BR VCSH BKN015 OVC040
     FM141600 19012G20KT P6SM VCTS BKN015 OVC035CB
      TEMPO 1418/1422 2SM TSRA BR OVC015CB
     FM142200 33015G25KT P6SM -SHRA OVC012
     FM150300 34015G25KT P6SM OVC012=



000
FTUS44 KMEG 140500
TAFMKL
TAF
KMKL 140520Z 1406/1506 18020G30KT P6SM -SHRA VCTS BKN035CB OVC060
      WS020/20050KT
      TEMPO 1407/1409 1SM +TSRA BKN015 OVC035CB
     FM141100 20010KT 5SM BR VCSH BKN015 OVC040
     FM141600 23011KT P6SM VCTS BKN015 OVC035CB
      TEMPO 1417/1420 3SM TSRA OVC015CB
     FM142000 33015G25KT P6SM -SHRA OVC012
     FM150100 34015G25KT P6SM OVC008=



000
FTUS44 KMEG 140300 AAA
TAFMEM
TAF AMD
KMEM 140316Z 1403/1424 18015G25KT P6SM -SHRA VCTS BKN040CB OVC060
      WS020/21055KT
      TEMPO 1403/1405 3SM TSRA BKN015 OVC035CB
     FM140500 20015G25KT P6SM VCTS SCT030CB BKN100
      TEMPO 1407/1409 2SM TSRA BKN015CB OVC030
     FM140900 17010KT 5SM BR VCSH BKN025 OVC040
     FM141500 23011KT P6SM VCTS BKN015 OVC035CB
      TEMPO 1415/1419 4SM -TSRA BR OVC015CB
     FM141900 33015G25KT P6SM -SHRA OVC012=



000
FTUS44 KMEG 132300
TAFMEM
TAF
KMEM 132338Z 1400/1424 18012G20KT P6SM VCTS SCT040CB OVC070
     FM140200 18012KT P6SM -SHRA VCTS BKN040CB OVC060 WS020/21055KT
      TEMPO 1402/1406 3SM TSRA BKN015 OVC035CB
     FM140800 20010KT 4SM BR VCSH BKN009 OVC015
     FM141500 23011KT P6SM VCTS BKN015 OVC035CB
      TEMPO 1415/1419 4SM -TSRA BR OVC015CB
     FM141900 33015G25KT P6SM -SHRA OVC012=



000
FTUS44 KMEG 132300
TAFTUP
TAF
KTUP 132338Z 1400/1424 19012G22KT P6SM SCT045 OVC200
     FM140400 19012KT P6SM VCSH BKN025 OVC040 WS020/19050KT
     FM140800 20010KT 5SM -TSRA BR BKN015 OVC035CB
     FM141200 22012KT 5SM BR VCSH BKN009 OVC015
     FM141600 22012KT P6SM VCTS BKN015 OVC035CB
      TEMPO 1418/1422 3SM TSRA BR OVC015CB
     FM142200 33015G25KT P6SM -SHRA OVC012=



000
FTUS44 KMEG 132300
TAFMKL
TAF
KMKL 132338Z 1400/1424 20017G27KT P6SM SCT050 OVC200
     FM140200 18015KT P6SM VCTS SCT040CB OVC060
     FM140400 19013KT P6SM -SHRA VCTS BKN035CB OVC060 WS020/20055KT
      TEMPO 1404/1408 3SM TSRA BKN015 OVC035CB
     FM141000 20010KT 4SM BR VCSH BKN009 OVC015
     FM141600 23011KT P6SM VCTS BKN015 OVC035CB
      TEMPO 1416/1420 4SM -TSRA BR OVC015CB
     FM142000 33015G25KT P6SM -SHRA OVC012=



000
FTUS44 KMEG 132300
TAFJBR
TAF
KJBR 132338Z 1400/1424 19015KT P6SM -TSRA BKN040CB OVC060
      WS020/22055KT
      TEMPO 1401/1405 2SM +TSRA BKN008 OVC015CB
     FM140700 20013KT 4SM BR VCSH BKN008 OVC035
     FM141300 23011KT P6SM VCTS BKN015 OVC035CB
      TEMPO 1413/1417 4SM -TSRA BR OVC015CB
     FM141700 33015G25KT P6SM -SHRA OVC012=



000
FTUS44 KMEG 132000 AAA
TAFJBR
TAF AMD
KJBR 132059Z 1321/1418 19015G26KT P6SM VCSH BKN040
     FM140000 19020G30KT P6SM -SHRA VCTS SCT025 BKN040CB
      TEMPO 1402/1405 VRB15G30KT 2SM +TSRA BKN008 OVC015CB
     FM140500 20019G28KT 6SM -SHRA VCTS BKN010 OVC035CB
      WS020/22055KT
      TEMPO 1405/1408 4SM -TSRA
     FM141000 22010G19KT 6SM -SHRA BKN008 OVC035CB
     FM141500 34014G22KT 6SM -SHRA OVC015=



000
FTUS44 KMEG 132000 AAA
TAFMEM
TAF AMD
KMEM 132057Z 1321/1418 20018G28KT P6SM BKN050 OVC150
     FM140000 19017G27KT P6SM VCSH SCT040 OVC060
     FM140200 18016G24KT P6SM -SHRA VCTS BKN040CB OVC060
      WS020/21055KT
      TEMPO 1405/1409 3SM TSRA BKN015 OVC035CB
     FM141100 20010G17KT 4SM -SHRA BKN009 OVC015
     FM141600 23011KT P6SM VCTS BKN015 OVC035CB=



000
FTUS44 KMEG 131700
TAFJBR
TAF
KJBR 131739Z 1318/1418 20025G33KT P6SM BKN035
     FM140000 19020G30KT P6SM -SHRA VCTS SCT025 BKN040CB
      TEMPO 1402/1405 VRB15G30KT 2SM +TSRA BKN008 OVC015CB
     FM140500 20019G28KT 6SM -SHRA VCTS BKN010 OVC035CB
      WS020/22055KT
      TEMPO 1405/1408 4SM -TSRA
     FM141000 22010G19KT 6SM -SHRA BKN008 OVC035CB
     FM141500 34014G22KT 6SM -SHRA OVC015=



000
FTUS44 KMEG 131700
TAFMKL
TAF
KMKL 131739Z 1318/1418 20017G26KT P6SM SCT035 SCT060 OVC200
     FM140100 18017G24KT P6SM VCSH SCT040 OVC060
     FM140400 19015G25KT P6SM -SHRA VCTS BKN035CB OVC060
      WS020/20055KT
     FM140800 20012G20KT 5SM -TSRA OVC015CB
     FM141200 22012KT 5SM -SHRA BKN009 OVC015
     FM141500 23010KT P6SM VCTS BKN015 OVC035CB=



000
FTUS44 KMEG 131700
TAFTUP
TAF
KTUP 131739Z 1318/1418 20016G24KT P6SM SCT045 OVC200
     FM140400 19014G22KT P6SM VCSH BKN025 OVC040 WS020/19050KT
     FM140900 20011G20KT 5SM -SHRA VCTS BKN009 OVC015CB
      TEMPO 1412/1416 3SM TSRA
     FM141600 21009KT 5SM -TSRA OVC015CB=



000
FTUS44 KMEG 131700
TAFMEM
TAF
KMEM 131739Z 1318/1418 20018G28KT P6SM SCT035 SCT060 OVC200
     FM132100 20022G30KT P6SM BKN050 OVC150
     FM140000 19019G27KT P6SM VCSH SCT040 OVC060
     FM140200 18018G27KT P6SM -SHRA VCTS BKN040CB OVC060
      WS020/21055KT
      TEMPO 1405/1409 3SM TSRA BKN015 OVC035CB
     FM141100 20010G17KT 4SM -SHRA BKN009 OVC015
     FM141600 23011KT P6SM VCTS BKN015 OVC035CB=



000
FTUS44 KMEG 131500 AAB
TAFMEM
TAF AMD
KMEM 131518Z 1315/1412 20018G25KT P6SM SCT030 OVC200
     FM131800 19019G27KT P6SM SCT035 SCT060 OVC120
     FM132100 21022G30KT P6SM BKN050 OVC100
     FM140100 19019G27KT P6SM VCSH SCT040 OVC060
     FM140300 18018G27KT P6SM VCTS BKN040CB OVC060 WS020/21055KT
      TEMPO 1406/1410 3SM TSRA BKN015 OVC035CB
     FM141030 20011G18KT 4SM -SHRA VCTS BKN009 OVC015CB=



000
FTUS44 KMEG 131400 AAA
TAFJBR
TAF AMD
KJBR 131441Z 1315/1412 19023G32KT P6SM SCT025 OVC035
      TEMPO 1315/1318 BKN025
     FM131830 20025G33KT P6SM BKN035
     FM132200 19020G30KT P6SM -SHRA VCTS SCT025 BKN040CB
      TEMPO 1401/1404 VRB15G30KT 2SM +TSRA BKN008 OVC015CB
     FM140400 20019G28KT 6SM -SHRA VCTS BKN010 OVC035CB
      WS020/22060KT
      TEMPO 1404/1407 3SM TSRA
     FM141000 17015G22KT 6SM -SHRA VCTS BKN008 OVC035CB=



000
FTUS44 KMEG 131400 AAA
TAFTUP
TAF AMD
KTUP 131432Z 1315/1412 21014G23KT P6SM SCT030 SCT060 OVC150
      TEMPO 1315/1317 BKN030
     FM131800 20016G24KT P6SM SCT050 OVC120
     FM140400 19014G22KT P6SM VCSH BKN025 OVC040 WS020/19050KT
     FM140700 20012G22KT 5SM -SHRA VCTS BKN009 OVC015CB
      TEMPO 1409/1412 3SM TSRA=



000
FTUS44 KMEG 131400 AAA
TAFMKL
TAF AMD
KMKL 131426Z 1314/1412 20016G24KT P6SM SCT025 BKN035
      TEMPO 1314/1316 BKN025
     FM131800 20017G26KT P6SM SCT035 SCT060 OVC120
     FM140100 18017G24KT P6SM VCSH SCT040 OVC060
     FM140400 19015G25KT P6SM -SHRA VCTS BKN035CB OVC060
      WS020/20055KT
     FM140800 19015G25KT 3SM -TSRA OVC015CB=



000
FTUS44 KMEG 131400 AAA
TAFMEM
TAF AMD
KMEM 131420Z 1314/1412 19015G25KT P6SM FEW025 OVC200
     FM131700 19019G27KT P6SM SCT035 SCT060 OVC120
     FM132100 21022G30KT P6SM BKN050 OVC100
     FM140100 19019G27KT P6SM VCSH SCT040 OVC060
     FM140300 18018G27KT P6SM VCTS BKN040CB OVC060 WS020/21055KT
      TEMPO 1406/1410 3SM TSRA BKN015 OVC035CB
     FM141030 20011G18KT 4SM -SHRA VCTS BKN009 OVC015CB=



    US Dept of Commerce
    National Oceanic and Atmospheric Administration
    National Weather Service
    1325 East West Highway
    Silver Spring, MD 20910
    Page Author: NWS Internet Services Team
Disclaimer
Information Quality
Credits
Glossary
Privacy Policy
Freedom of Information Act (FOIA)
About Us
Career Opportunities